Pagina principală
METAR-TAF:

METAR-TAF

Aeroporturi :

Hagåtña, Guam, Statele Unite ale Americii

Latitudine: 13-29N, longitudine: 144-48E, elevație: 91 m

Observații meteo curente

Raportul a fost făcut în urmă cu 1 oră și 17 de minute, la 07:54 UTC
Vânt 10 kt de la Est/Nord-est
Temperatură 26°C
Umiditate 89%
Presiune 1012 hPa
Vizibilitate: 16.1 km
Nori puțini la o înălțime de 6000 picior

METAR: PGUM 240754Z 06010KT 10SM FEW060 26/24 A2989 RMK SLP112

Ora: 19:11 (09:11 UTC)

Prognoză

Raportul a fost făcut în urmă cu 44 de minute, la 08:27 UTC
Prognoză valabilă de la 24 ora 08 UTC la 25 ora 12 UTC
Vânt 11 kt de la Est/Nord-est
Vizibilitate: 10 km
Nori puțini la o înălțime de 2000 picior
Nori împrăștiați la o înălțime de 3500 picior
averse în apropiere

TAF: PGUM 240827Z 2408/2512 07011KT P6SM VCSH FEW020 SCT035

Observații și prognoze meteo pentru peste 4.000 de aeroporturi (rapoarte METAR și TAF).

Stațiile disponibile sunt reprezentate pe hartă prin puncte galbene și roșii.

Țineți indicatorul mouse-ului pe punctul dorit pentru a vedea denumirea stației.

Apoi, faceți clic pentru a vedea observațiile și prognozele meteorologice.

Pentru a schimba harta: Pentru mărire, faceți clic pe butoanele verzi cu cruce neagră; pentru micșorare, pe butonul verde cu o liniuță; pentru hărți învecinate, pe săgețile verzi.


METAR-TAF: